Weather at Rotterdam The Hague Airport

Public forecast

Using degrees Celsius for public forecast. Weather courtesy of forecast.io.

Current aviation weather report (METAR) for Rotterdam The Hague Airport

Retrieved 2022/08/14 06:25 UTC (0 seconds ago):

EHRD 140625Z AUTO 09005KT 060V130 9999 NSC 21/14 Q1009 NOSIG

Aviation forecast (TAF) for Rotterdam The Hague Airport

Retrieved 2022/08/14 06:27 UTC (0 seconds ago):

TAF EHRD 140500Z 1406/1512 09005KT CAVOK BECMG 1408/1411 10010KT BECMG 1416/1419 06006KT BECMG 1502/1505 24011KT PROB30 TEMPO 1510/1512 18015G25KT 6000 SHRA SCT050CB